Time;durP1;ratioP1;P1;durP2;ratioP2;P2;SDS_P1;SDS_P2;PMS_P1;PMS_P2;Temp;Humidity;BMP_temperature;BMP_pressure;BME280_temperature;BME280_humidity;BME280_pressure;Samples;Min_cycle;Max_cycle;Signal;HPM_P1;HPM_P2
2021/10/01 00:01:29;;;;;;;3.00;1.63;;;10.90;99.90;;;;;;4959283;28;20221;-71
2021/10/01 00:03:56;;;;;;;1.87;1.20;;;10.70;99.90;;;;;;4969913;28;20210;-71
2021/10/01 00:06:24;;;;;;;1.10;1.00;;;10.60;99.90;;;;;;4970716;28;20318;-71
2021/10/01 00:08:50;;;;;;;2.40;1.20;;;10.60;99.90;;;;;;4966423;28;20216;-70
2021/10/01 00:11:17;;;;;;;3.03;1.33;;;10.70;99.90;;;;;;4966558;28;20210;-71
2021/10/01 00:13:44;;;;;;;3.97;1.17;;;10.70;99.90;;;;;;4961292;28;20209;-70
2021/10/01 00:16:13;;;;;;;3.77;1.53;;;10.50;99.90;;;;;;4968127;28;20225;-68
2021/10/01 00:18:40;;;;;;;4.63;1.67;;;10.50;99.90;;;;;;4971339;28;20212;-68
2021/10/01 00:21:07;;;;;;;1.77;1.23;;;10.40;99.90;;;;;;4971281;28;20205;-68
2021/10/01 00:23:34;;;;;;;1.93;1.70;;;10.40;99.90;;;;;;4967663;28;20206;-68
2021/10/01 00:26:01;;;;;;;2.03;1.37;;;10.40;99.90;;;;;;4968733;28;20263;-68
2021/10/01 00:28:28;;;;;;;3.13;1.40;;;10.30;99.90;;;;;;4968826;28;20197;-68
2021/10/01 00:30:56;;;;;;;3.67;1.70;;;10.20;99.90;;;;;;4971922;28;20208;-69
2021/10/01 00:33:24;;;;;;;2.90;2.07;;;10.20;99.90;;;;;;4970445;28;20309;-68
2021/10/01 00:35:51;;;;;;;4.37;1.97;;;10.30;99.90;;;;;;4957480;28;20236;-68
2021/10/01 00:38:17;;;;;;;2.40;1.80;;;10.30;99.90;;;;;;4959307;28;20205;-68
2021/10/01 00:40:44;;;;;;;4.80;1.77;;;10.30;99.90;;;;;;4973344;28;20201;-68
2021/10/01 00:43:11;;;;;;;3.73;1.53;;;10.30;99.90;;;;;;4964054;28;20209;-68
2021/10/01 00:45:38;;;;;;;4.00;1.67;;;10.40;99.90;;;;;;4965546;28;20635;-68
2021/10/01 00:48:05;;;;;;;2.73;1.63;;;10.40;99.90;;;;;;4972586;28;20205;-69
2021/10/01 00:50:33;;;;;;;3.63;1.90;;;10.40;99.90;;;;;;4969199;28;20201;-68
2021/10/01 00:53:01;;;;;;;2.80;1.90;;;10.50;99.90;;;;;;4968921;28;20237;-68
2021/10/01 00:55:29;;;;;;;4.00;1.50;;;10.40;99.90;;;;;;4960489;28;20272;-68
2021/10/01 00:57:56;;;;;;;3.53;1.60;;;10.50;99.90;;;;;;4970598;28;20708;-68
2021/10/01 01:00:27;;;;;;;2.40;1.73;;;10.50;99.90;;;;;;4969038;28;20206;-68
2021/10/01 01:02:55;;;;;;;2.77;1.40;;;10.50;99.90;;;;;;4967235;28;20293;-68
2021/10/01 01:05:31;;;;;;;7.30;1.83;;;10.50;99.90;;;;;;4965958;28;20201;-68
2021/10/01 01:08:07;;;;;;;3.57;1.30;;;10.60;99.90;;;;;;4970811;28;20209;-68
2021/10/01 01:10:41;;;;;;;5.63;2.07;;;10.60;99.90;;;;;;4965706;28;20217;-68
2021/10/01 01:13:15;;;;;;;2.67;1.60;;;10.50;99.90;;;;;;4972179;28;20204;-69
2021/10/01 01:15:48;;;;;;;4.70;1.67;;;10.50;99.90;;;;;;4955887;28;20307;-68
2021/10/01 01:18:24;;;;;;;5.03;1.63;;;10.50;99.90;;;;;;4948549;28;20261;-68
2021/10/01 01:20:53;;;;;;;6.30;1.70;;;10.50;99.90;;;;;;4971583;28;20228;-68
2021/10/01 01:23:43;;;;;;;3.50;1.20;;;10.60;99.90;;;;;;4970412;28;20221;-68
2021/10/01 01:26:17;;;;;;;2.37;1.50;;;10.70;99.90;;;;;;4957723;28;20198;-68
2021/10/01 01:29:20;;;;;;;4.77;1.80;;;10.70;99.90;;;;;;4960328;28;20232;-68
2021/10/01 01:31:55;;;;;;;3.17;1.50;;;10.70;99.90;;;;;;4960424;28;20292;-68
2021/10/01 01:34:30;;;;;;;3.90;1.40;;;10.70;99.90;;;;;;4968805;28;20208;-68
2021/10/01 01:37:02;;;;;;;4.07;2.00;;;10.80;99.90;;;;;;4969885;28;20582;-68
2021/10/01 01:39:30;;;;;;;3.27;1.70;;;10.80;99.90;;;;;;4972189;28;20220;-68
2021/10/01 01:41:59;;;;;;;3.43;1.50;;;10.90;99.90;;;;;;4963722;28;20221;-68
2021/10/01 01:44:27;;;;;;;2.60;1.67;;;10.90;99.90;;;;;;4965122;28;20256;-68
2021/10/01 01:46:56;;;;;;;1.83;1.40;;;10.90;99.90;;;;;;4967815;28;20204;-68
2021/10/01 01:49:25;;;;;;;3.93;1.93;;;10.80;99.90;;;;;;4967043;28;20214;-68
2021/10/01 01:51:53;;;;;;;1.87;1.50;;;10.70;99.90;;;;;;4963419;28;20201;-68
2021/10/01 01:54:21;;;;;;;6.43;1.70;;;10.60;99.90;;;;;;4965085;28;20221;-68
2021/10/01 01:56:49;;;;;;;5.40;1.60;;;10.60;99.90;;;;;;4971039;28;20229;-68
2021/10/01 01:59:16;;;;;;;4.63;1.33;;;10.60;99.90;;;;;;4968210;28;20205;-68
2021/10/01 02:01:44;;;;;;;4.43;1.70;;;10.50;99.90;;;;;;4968581;28;20206;-68
2021/10/01 02:04:14;;;;;;;3.30;1.70;;;10.50;99.90;;;;;;4961890;28;20202;-68
2021/10/01 02:06:43;;;;;;;4.00;2.00;;;10.40;99.90;;;;;;4966138;28;20572;-68
2021/10/01 02:09:12;;;;;;;4.00;2.13;;;10.40;99.90;;;;;;4969692;28;20202;-68
2021/10/01 02:11:41;;;;;;;3.93;1.70;;;10.40;99.90;;;;;;4970117;28;20212;-68
2021/10/01 02:14:08;;;;;;;3.40;1.77;;;10.50;99.90;;;;;;4959130;28;20679;-68
2021/10/01 02:16:37;;;;;;;3.33;1.80;;;10.50;99.90;;;;;;4966999;28;20217;-68
2021/10/01 02:19:06;;;;;;;3.70;2.00;;;10.40;99.90;;;;;;4968998;28;20220;-68
2021/10/01 02:21:35;;;;;;;5.20;2.17;;;10.40;99.90;;;;;;4964658;28;20203;-68
2021/10/01 02:24:05;;;;;;;4.47;2.20;;;10.40;99.90;;;;;;4969149;28;20217;-68
2021/10/01 02:26:41;;;;;;;3.07;2.00;;;10.40;99.90;;;;;;4974250;28;20194;-68
2021/10/01 02:29:19;;;;;;;4.30;2.00;;;10.40;99.90;;;;;;4975144;28;20208;-68
2021/10/01 02:31:58;;;;;;;3.57;2.47;;;10.40;99.90;;;;;;4964187;28;20205;-68
2021/10/01 02:34:32;;;;;;;4.93;2.33;;;10.40;99.90;;;;;;4965883;28;20213;-68
2021/10/01 02:36:59;;;;;;;3.20;2.00;;;10.40;99.90;;;;;;4948809;28;20285;-68
2021/10/01 02:39:28;;;;;;;5.03;1.57;;;10.40;99.90;;;;;;4966227;28;20208;-68
2021/10/01 02:41:55;;;;;;;2.07;1.40;;;10.40;99.90;;;;;;4964042;28;20201;-68
2021/10/01 02:44:22;;;;;;;3.43;1.70;;;10.40;99.90;;;;;;4965848;28;20220;-68
2021/10/01 02:46:49;;;;;;;2.17;1.40;;;10.40;99.90;;;;;;4960593;28;20199;-68
2021/10/01 02:49:16;;;;;;;4.33;1.60;;;10.40;99.90;;;;;;4961398;28;20221;-68
2021/10/01 02:51:50;;;;;;;2.97;1.57;;;10.40;99.90;;;;;;4971142;28;20206;-68
2021/10/01 02:54:24;;;;;;;4.13;1.50;;;10.30;99.90;;;;;;4967365;28;20217;-68
2021/10/01 02:57:00;;;;;;;4.23;1.67;;;10.40;99.90;;;;;;4970805;28;20229;-68
2021/10/01 02:59:30;;;;;;;2.63;1.37;;;10.30;99.90;;;;;;4972157;28;20197;-68
2021/10/01 03:02:00;;;;;;;4.00;1.87;;;10.20;99.90;;;;;;4971536;28;20750;-68
2021/10/01 03:04:28;;;;;;;3.10;1.77;;;10.10;99.90;;;;;;4973823;28;20249;-68
2021/10/01 03:06:56;;;;;;;3.90;1.80;;;10.10;99.90;;;;;;4971714;28;20664;-68
2021/10/01 03:09:24;;;;;;;3.53;1.70;;;10.00;99.90;;;;;;4972774;28;20213;-68
2021/10/01 03:11:53;;;;;;;2.43;1.80;;;9.90;99.90;;;;;;4968343;28;20203;-69
2021/10/01 03:14:21;;;;;;;2.20;1.60;;;9.90;99.90;;;;;;4965764;28;20210;-68
2021/10/01 03:16:49;;;;;;;4.63;2.67;;;9.80;99.90;;;;;;4970040;28;20585;-68
2021/10/01 03:19:17;;;;;;;5.23;1.90;;;9.80;99.90;;;;;;4975359;28;20210;-68
2021/10/01 03:21:44;;;;;;;2.87;1.90;;;9.80;99.90;;;;;;4973318;28;20201;-68
2021/10/01 03:24:13;;;;;;;2.37;1.80;;;9.80;99.90;;;;;;4974863;28;20212;-68
2021/10/01 03:26:40;;;;;;;2.97;1.40;;;9.80;99.90;;;;;;4971152;28;20652;-68
2021/10/01 03:29:12;;;;;;;2.63;1.50;;;9.80;99.90;;;;;;4973011;28;20667;-68
2021/10/01 03:31:39;;;;;;;4.03;1.40;;;9.60;99.90;;;;;;4967366;28;20265;-68
2021/10/01 03:34:07;;;;;;;6.00;1.80;;;9.60;99.90;;;;;;4965518;28;20672;-68
2021/10/01 03:36:34;;;;;;;4.63;1.60;;;9.70;99.90;;;;;;4968991;28;20677;-71
2021/10/01 03:39:01;;;;;;;4.23;1.60;;;9.80;99.90;;;;;;4965521;28;20288;-74
2021/10/01 03:41:28;;;;;;;1.87;1.20;;;9.90;99.90;;;;;;4972358;28;20217;-74
2021/10/01 03:43:55;;;;;;;1.90;1.30;;;9.90;99.90;;;;;;4970736;28;20206;-74
2021/10/01 03:46:24;;;;;;;2.70;1.30;;;9.90;99.90;;;;;;4967992;28;20191;-74
2021/10/01 03:48:51;;;;;;;2.57;1.50;;;10.00;99.90;;;;;;4975320;28;20645;-74
2021/10/01 03:51:18;;;;;;;3.27;1.20;;;10.00;99.90;;;;;;4973514;28;20423;-74
2021/10/01 03:53:45;;;;;;;4.97;1.40;;;9.90;99.90;;;;;;4971902;28;20205;-74
2021/10/01 03:56:16;;;;;;;2.30;1.30;;;10.10;99.90;;;;;;4971048;28;20578;-74
2021/10/01 03:58:43;;;;;;;2.83;1.30;;;10.20;99.90;;;;;;4965066;28;20237;-74
2021/10/01 04:01:10;;;;;;;1.80;1.30;;;10.20;99.90;;;;;;4967261;28;20575;-74
2021/10/01 04:03:38;;;;;;;5.27;1.97;;;10.20;99.90;;;;;;4962632;28;20211;-74
2021/10/01 04:06:05;;;;;;;5.53;1.57;;;10.10;99.90;;;;;;4967202;28;20210;-74
2021/10/01 04:08:32;;;;;;;6.87;1.63;;;10.00;99.90;;;;;;4968874;28;20210;-74
2021/10/01 04:10:59;;;;;;;3.00;1.57;;;9.90;99.90;;;;;;4970504;28;20211;-74
2021/10/01 04:13:27;;;;;;;1.83;1.30;;;9.90;99.90;;;;;;4970962;28;20202;-74
2021/10/01 04:15:54;;;;;;;4.23;1.43;;;9.80;99.90;;;;;;4960968;28;20237;-74
2021/10/01 04:18:21;;;;;;;4.63;1.93;;;9.80;99.90;;;;;;4970571;28;20202;-74
2021/10/01 04:20:50;;;;;;;9.67;1.80;;;9.70;99.90;;;;;;4954676;29;20660;-74
2021/10/01 04:23:17;;;;;;;2.80;1.20;;;9.80;99.90;;;;;;4969918;28;20206;-75
2021/10/01 04:25:43;;;;;;;4.40;1.30;;;9.90;99.90;;;;;;4972962;28;20629;-74
2021/10/01 04:28:11;;;;;;;4.13;1.63;;;9.80;99.90;;;;;;4973336;28;20205;-75
2021/10/01 04:30:42;;;;;;;4.03;1.53;;;9.90;99.90;;;;;;4971044;28;20209;-74
2021/10/01 04:33:17;;;;;;;2.83;1.60;;;9.90;99.90;;;;;;4964679;28;20223;-74
2021/10/01 04:35:44;;;;;;;3.80;1.50;;;10.00;99.90;;;;;;4971852;28;20205;-74
2021/10/01 04:38:13;;;;;;;3.50;1.60;;;10.00;99.90;;;;;;4966880;28;21718;-74
2021/10/01 04:40:40;;;;;;;3.73;1.57;;;10.20;99.90;;;;;;4970362;28;20674;-74
2021/10/01 04:43:07;;;;;;;6.63;1.90;;;10.30;99.90;;;;;;4970524;28;20198;-75
2021/10/01 04:45:33;;;;;;;4.50;1.60;;;10.20;99.90;;;;;;4972444;28;20213;-74
2021/10/01 04:48:04;;;;;;;5.70;1.80;;;10.20;99.90;;;;;;4972425;28;20209;-74
2021/10/01 04:50:31;;;;;;;2.83;1.07;;;10.30;99.90;;;;;;4972388;28;20201;-74
2021/10/01 04:52:57;;;;;;;5.70;1.40;;;10.30;99.90;;;;;;4973320;28;20213;-74
2021/10/01 04:55:26;;;;;;;3.83;1.47;;;10.20;99.90;;;;;;4957861;28;20214;-74
2021/10/01 04:57:53;;;;;;;1.73;1.00;;;10.30;99.90;;;;;;4973211;28;20236;-74
2021/10/01 05:00:20;;;;;;;2.63;1.20;;;10.30;99.90;;;;;;4967888;28;20213;-74
2021/10/01 05:02:47;;;;;;;2.27;1.37;;;10.30;99.90;;;;;;4966557;28;20210;-74
2021/10/01 05:05:14;;;;;;;3.77;1.60;;;10.20;99.90;;;;;;4970655;28;20209;-75
2021/10/01 05:07:41;;;;;;;6.53;2.00;;;10.10;99.90;;;;;;4968828;28;20212;-74
2021/10/01 05:10:09;;;;;;;2.33;1.33;;;10.10;99.90;;;;;;4972862;28;20205;-74
2021/10/01 05:12:37;;;;;;;3.50;1.30;;;10.20;99.90;;;;;;4969217;28;20202;-74
2021/10/01 05:15:05;;;;;;;3.90;1.70;;;10.20;99.90;;;;;;4970345;28;20675;-74
2021/10/01 05:17:34;;;;;;;1.90;1.43;;;10.40;99.90;;;;;;4961397;28;20221;-74
2021/10/01 05:20:00;;;;;;;2.73;1.23;;;10.30;99.90;;;;;;4971126;28;20206;-74
2021/10/01 05:22:28;;;;;;;4.20;1.43;;;10.40;99.90;;;;;;4968143;28;20613;-74
2021/10/01 05:24:54;;;;;;;3.03;1.30;;;10.30;99.90;;;;;;4972665;28;20212;-74
2021/10/01 05:27:21;;;;;;;4.20;2.00;;;10.40;99.90;;;;;;4970946;28;20198;-75
2021/10/01 05:29:49;;;;;;;3.60;1.43;;;10.40;99.90;;;;;;4971517;28;20571;-75
2021/10/01 05:32:16;;;;;;;3.63;1.33;;;10.30;99.90;;;;;;4961397;28;20203;-74
2021/10/01 05:34:43;;;;;;;3.40;1.30;;;10.30;99.90;;;;;;4965750;28;20205;-74
2021/10/01 05:37:10;;;;;;;5.03;1.50;;;10.40;99.90;;;;;;4969829;28;20773;-74
2021/10/01 05:39:37;;;;;;;3.27;1.60;;;10.40;99.90;;;;;;4963712;28;20202;-74
2021/10/01 05:42:05;;;;;;;2.00;1.47;;;10.40;99.90;;;;;;4970478;28;20225;-75
2021/10/01 05:44:32;;;;;;;3.53;1.70;;;10.40;99.90;;;;;;4962602;28;20204;-75
2021/10/01 05:47:02;;;;;;;5.73;1.70;;;10.50;99.90;;;;;;4961965;28;20679;-74
2021/10/01 05:49:36;;;;;;;3.07;1.13;;;10.50;99.90;;;;;;4953545;28;20712;-75
2021/10/01 05:52:15;;;;;;;3.30;1.30;;;10.50;99.90;;;;;;4967946;28;20209;-75
2021/10/01 05:54:42;;;;;;;2.97;1.33;;;10.50;99.90;;;;;;4957389;28;20271;-74
2021/10/01 05:57:11;;;;;;;1.67;1.20;;;10.40;99.90;;;;;;4972527;28;20236;-74
2021/10/01 05:59:39;;;;;;;4.43;1.57;;;10.50;99.90;;;;;;4964194;28;20198;-74
2021/10/01 06:02:11;;;;;;;3.43;1.30;;;10.50;99.90;;;;;;4960946;28;20205;-72
2021/10/01 06:04:38;;;;;;;4.30;1.23;;;10.50;99.90;;;;;;4972412;28;20573;-75
2021/10/01 06:07:05;;;;;;;3.87;1.43;;;10.60;99.90;;;;;;4962784;28;20206;-75
2021/10/01 06:09:32;;;;;;;3.40;1.23;;;10.70;99.90;;;;;;4975905;28;20209;-75
2021/10/01 06:11:59;;;;;;;2.93;1.30;;;10.70;99.90;;;;;;4971437;28;20205;-75
2021/10/01 06:14:26;;;;;;;2.13;1.53;;;10.80;99.90;;;;;;4975838;28;20210;-75
2021/10/01 06:16:54;;;;;;;4.83;1.30;;;10.80;99.90;;;;;;4971697;28;20228;-74
2021/10/01 06:19:23;;;;;;;3.33;1.53;;;10.90;99.90;;;;;;4973989;28;20221;-75
2021/10/01 06:21:51;;;;;;;8.47;4.20;;;10.90;99.90;;;;;;4965301;28;20202;-75
2021/10/01 06:24:19;;;;;;;3.57;1.30;;;11.00;99.90;;;;;;4968379;28;20660;-75
2021/10/01 06:26:47;;;;;;;3.63;1.57;;;11.00;99.90;;;;;;4971999;28;20205;-75
2021/10/01 06:29:15;;;;;;;3.83;1.37;;;11.10;99.90;;;;;;4969759;28;21294;-74
2021/10/01 06:31:42;;;;;;;3.47;1.10;;;11.10;99.90;;;;;;4969888;28;20739;-74
2021/10/01 06:34:09;;;;;;;3.23;1.47;;;11.20;99.90;;;;;;4967821;28;20203;-74
2021/10/01 06:36:37;;;;;;;3.90;1.73;;;11.10;99.90;;;;;;4968191;28;20225;-75
2021/10/01 06:39:05;;;;;;;2.57;1.17;;;11.20;99.90;;;;;;4968753;28;20592;-75
2021/10/01 06:41:32;;;;;;;2.23;1.07;;;11.20;99.90;;;;;;4973329;28;20205;-75
2021/10/01 06:44:01;;;;;;;4.00;1.30;;;11.20;99.90;;;;;;4970754;28;20197;-75
2021/10/01 06:46:35;;;;;;;1.80;1.17;;;11.20;99.90;;;;;;4969315;28;20209;-75
2021/10/01 06:49:15;;;;;;;1.83;1.20;;;11.20;99.90;;;;;;4964982;28;20560;-76
2021/10/01 06:51:53;;;;;;;5.23;1.40;;;11.30;99.90;;;;;;4948708;28;20216;-76
2021/10/01 07:22:09;;;;;;;4.07;1.43;;;12.00;99.90;;;;;;4960895;28;20251;-72
2021/10/01 08:19:34;;;;;;;3.33;1.20;;;13.20;99.90;;;;;;4959395;28;20241;-72
2021/10/01 08:22:02;;;;;;;2.53;1.17;;;13.30;99.90;;;;;;4975743;28;20674;-72
2021/10/01 08:24:31;;;;;;;1.67;1.00;;;13.30;99.90;;;;;;4968159;28;20628;-72
2021/10/01 08:26:59;;;;;;;3.43;1.10;;;13.40;99.90;;;;;;4962624;28;20202;-72
2021/10/01 08:29:27;;;;;;;3.33;0.90;;;13.40;99.90;;;;;;4985510;28;20215;-72
2021/10/01 08:32:00;;;;;;;2.20;1.43;;;13.50;99.90;;;;;;4967908;28;20229;-72
2021/10/01 08:34:28;;;;;;;2.90;1.17;;;13.60;99.90;;;;;;4968878;28;20228;-73
2021/10/01 08:36:55;;;;;;;3.00;1.00;;;13.70;99.90;;;;;;4974134;28;20687;-73
2021/10/01 08:39:22;;;;;;;3.57;1.13;;;13.90;99.90;;;;;;4965197;28;20198;-72
2021/10/01 08:41:49;;;;;;;3.23;0.80;;;13.90;99.90;;;;;;4979131;28;20206;-72
2021/10/01 08:44:17;;;;;;;2.83;1.00;;;14.00;99.90;;;;;;4966541;28;20201;-72
2021/10/01 08:46:46;;;;;;;3.87;1.00;;;14.30;99.90;;;;;;4976862;28;20209;-72
2021/10/01 08:49:14;;;;;;;3.40;1.07;;;14.40;99.90;;;;;;4960392;28;20214;-72
2021/10/01 08:51:41;;;;;;;2.10;0.90;;;14.40;99.90;;;;;;4962530;28;20221;-72
2021/10/01 08:54:08;;;;;;;3.20;1.10;;;14.40;99.90;;;;;;4962573;28;20219;-72
2021/10/01 08:56:35;;;;;;;3.70;1.17;;;14.50;99.90;;;;;;4958387;28;20205;-72
2021/10/01 08:59:02;;;;;;;6.33;1.43;;;14.50;99.90;;;;;;4976185;28;20206;-72
2021/10/01 09:01:29;;;;;;;2.23;1.10;;;14.50;99.90;;;;;;4963272;28;20708;-72
2021/10/01 09:03:58;;;;;;;3.27;0.80;;;14.60;99.90;;;;;;4964867;28;20213;-72
2021/10/01 09:06:25;;;;;;;2.37;1.07;;;14.60;99.90;;;;;;4959753;28;20678;-73
2021/10/01 09:08:53;;;;;;;3.00;0.90;;;14.70;99.90;;;;;;4968126;28;20202;-72
2021/10/01 09:11:27;;;;;;;3.40;1.53;;;14.80;99.90;;;;;;4962980;28;20216;-73
2021/10/01 09:13:54;;;;;;;2.83;0.93;;;14.90;99.90;;;;;;4963044;28;20652;-73
2021/10/01 09:16:22;;;;;;;3.67;1.20;;;15.00;99.90;;;;;;4966680;28;20318;-72
2021/10/01 09:18:50;;;;;;;2.13;0.60;;;15.10;99.90;;;;;;4964641;28;20225;-72
2021/10/01 09:21:20;;;;;;;2.27;1.00;;;15.10;99.90;;;;;;4972091;28;20211;-72
2021/10/01 09:23:57;;;;;;;6.37;0.87;;;15.40;99.90;;;;;;4954350;28;20208;-73
2021/10/01 09:26:25;;;;;;;1.37;0.70;;;15.60;99.90;;;;;;4969746;28;20209;-72
2021/10/01 09:28:54;;;;;;;1.57;0.80;;;15.70;99.90;;;;;;4981198;28;20272;-72
2021/10/01 09:31:39;;;;;;;3.50;0.77;;;15.90;99.50;;;;;;4964199;28;20233;-73
2021/10/01 09:34:08;;;;;;;2.80;0.80;;;15.80;99.90;;;;;;4961424;28;20574;-72
2021/10/01 09:36:37;;;;;;;3.30;0.90;;;15.70;99.30;;;;;;4960217;28;20213;-72
2021/10/01 09:39:05;;;;;;;2.03;0.73;;;15.80;99.60;;;;;;4956345;28;20226;-72
2021/10/01 09:41:35;;;;;;;2.50;1.23;;;16.00;99.90;;;;;;4955871;28;20214;-72
2021/10/01 09:44:13;;;;;;;1.20;1.00;;;16.10;99.90;;;;;;4979649;28;20206;-72
2021/10/01 09:46:43;;;;;;;1.92;0.88;;;16.10;98.60;;;;;;4958055;28;20559;-73
2021/10/01 09:49:11;;;;;;;4.78;1.20;;;16.30;99.90;;;;;;4983762;28;20211;-72
2021/10/01 09:51:39;;;;;;;1.52;1.23;;;16.40;99.90;;;;;;4970559;28;20688;-72
2021/10/01 09:54:14;;;;;;;3.65;1.38;;;16.50;99.90;;;;;;4968284;28;20256;-72
2021/10/01 09:56:42;;;;;;;5.65;1.48;;;16.70;99.90;;;;;;4955528;28;20213;-72
2021/10/01 09:59:20;;;;;;;3.63;1.15;;;16.90;98.90;;;;;;4957847;28;20221;-72
2021/10/01 10:02:06;;;;;;;1.13;0.70;;;16.90;98.30;;;;;;4968369;28;20210;-72
2021/10/01 10:04:36;;;;;;;3.83;1.25;;;16.80;99.20;;;;;;4960631;28;20206;-73
2021/10/01 10:07:22;;;;;;;2.95;1.50;;;16.70;99.00;;;;;;4963924;28;20205;-72
2021/10/01 10:09:52;;;;;;;1.10;0.85;;;16.80;97.90;;;;;;4961667;28;20206;-73
2021/10/01 10:12:22;;;;;;;4.65;0.95;;;16.90;98.40;;;;;;4954922;28;20206;-73
2021/10/01 10:14:52;;;;;;;1.42;0.80;;;16.80;99.90;;;;;;4965366;28;20590;-73
2021/10/01 10:17:22;;;;;;;2.17;0.80;;;16.80;99.60;;;;;;4962989;28;20237;-72
2021/10/01 10:19:50;;;;;;;1.13;0.88;;;16.80;97.80;;;;;;4949867;28;20653;-72
2021/10/01 10:22:20;;;;;;;1.38;0.80;;;16.70;97.50;;;;;;4965607;28;20201;-72
2021/10/01 10:24:47;;;;;;;2.42;1.17;;;16.70;98.40;;;;;;4970528;28;20877;-71
2021/10/01 10:27:14;;;;;;;3.10;0.80;;;16.60;98.60;;;;;;4955429;28;20593;-69
2021/10/01 10:29:43;;;;;;;3.63;0.90;;;16.60;98.80;;;;;;4971163;28;20209;-69
2021/10/01 10:32:11;;;;;;;4.22;1.08;;;16.60;99.90;;;;;;4969417;28;20589;-69
2021/10/01 10:34:50;;;;;;;4.30;1.10;;;16.70;99.40;;;;;;4970889;28;20789;-70
2021/10/01 10:37:17;;;;;;;1.77;0.90;;;16.60;99.10;;;;;;4982181;28;20263;-69
2021/10/01 10:40:05;;;;;;;2.70;0.85;;;16.70;99.70;;;;;;4984871;28;20197;-69
2021/10/01 10:42:37;;;;;;;2.90;0.95;;;16.80;99.50;;;;;;4962203;28;20692;-69
2021/10/01 10:45:19;;;;;;;5.68;1.30;;;16.80;98.30;;;;;;4962937;28;20635;-69
2021/10/01 10:47:55;;;;;;;2.95;1.00;;;16.90;98.10;;;;;;4970016;28;20301;-69
2021/10/01 10:50:44;;;;;;;1.70;0.90;;;16.80;98.30;;;;;;4966115;28;20292;-69
2021/10/01 10:53:27;;;;;;;1.63;0.68;;;16.90;99.90;;;;;;4970495;28;20226;-70
2021/10/01 10:56:07;;;;;;;2.20;0.85;;;16.80;98.60;;;;;;4988129;28;20303;-69
2021/10/01 10:58:49;;;;;;;1.27;0.73;;;16.90;98.80;;;;;;4976632;28;20584;-69
2021/10/01 11:01:29;;;;;;;3.08;1.25;;;17.00;97.90;;;;;;4965434;28;20523;-69
2021/10/01 11:04:35;;;;;;;1.77;0.70;;;17.00;95.10;;;;;;4977441;28;20214;-69
2021/10/01 11:07:02;;;;;;;1.52;0.90;;;16.90;95.30;;;;;;4971973;28;20592;-69
2021/10/01 11:09:31;;;;;;;1.52;0.70;;;17.00;95.30;;;;;;4970629;28;21893;-69
2021/10/01 11:12:01;;;;;;;2.38;0.80;;;17.00;95.70;;;;;;4973524;28;20221;-69
2021/10/01 11:14:29;;;;;;;1.85;0.70;;;17.00;93.00;;;;;;4975976;28;20572;-70
2021/10/01 11:17:17;;;;;;;1.42;0.77;;;17.00;93.30;;;;;;4965567;28;20207;-69
2021/10/01 11:19:45;;;;;;;1.05;0.63;;;17.00;94.20;;;;;;4978643;28;20197;-69
2021/10/01 11:22:30;;;;;;;3.15;1.20;;;17.00;94.20;;;;;;4970676;28;20643;-68
2021/10/01 11:25:00;;;;;;;2.40;0.80;;;17.10;95.60;;;;;;4974141;28;20217;-69
2021/10/01 11:27:29;;;;;;;3.15;0.90;;;16.90;93.80;;;;;;4973998;28;20230;-69
2021/10/01 11:29:56;;;;;;;4.63;1.02;;;16.90;94.50;;;;;;4966958;28;22080;-69
2021/10/01 11:32:24;;;;;;;2.63;0.85;;;16.80;93.40;;;;;;4965925;28;20214;-69
2021/10/01 11:34:53;;;;;;;4.38;1.08;;;16.90;91.60;;;;;;4967605;28;20657;-69
2021/10/01 11:37:22;;;;;;;3.17;0.70;;;17.10;91.70;;;;;;4965609;28;20214;-69
2021/10/01 11:39:49;;;;;;;2.20;0.73;;;16.90;90.20;;;;;;4974344;28;20254;-68
2021/10/01 11:42:22;;;;;;;2.75;0.70;;;17.10;88.30;;;;;;4980179;28;20537;-69
2021/10/01 11:44:50;;;;;;;2.08;0.80;;;17.30;84.70;;;;;;4973501;28;20580;-69
2021/10/01 11:47:18;;;;;;;1.90;0.70;;;17.70;85.70;;;;;;4976030;28;20286;-69
2021/10/01 11:49:52;;;;;;;0.70;0.55;;;18.20;84.20;;;;;;4985168;28;20596;-69
2021/10/01 11:52:20;;;;;;;1.40;0.73;;;18.80;82.70;;;;;;4968207;28;20213;-69
2021/10/01 11:54:52;;;;;;;1.75;0.90;;;19.10;79.40;;;;;;4980213;28;20300;-69
2021/10/01 11:57:18;;;;;;;2.30;0.50;;;19.40;77.50;;;;;;4968482;28;20229;-69
2021/10/01 12:00:04;;;;;;;1.23;0.75;;;19.70;73.80;;;;;;4963758;28;20616;-69
2021/10/01 12:02:34;;;;;;;0.93;0.70;;;19.80;75.10;;;;;;4966381;28;20817;-69
2021/10/01 12:05:24;;;;;;;2.30;0.50;;;19.80;71.40;;;;;;4966168;28;20760;-69
2021/10/01 12:07:53;;;;;;;3.33;0.50;;;20.10;72.10;;;;;;4963933;28;20211;-69
2021/10/01 12:10:21;;;;;;;2.72;1.17;;;20.30;70.20;;;;;;4958621;28;20202;-69
2021/10/01 12:13:05;;;;;;;3.25;0.73;;;20.50;67.80;;;;;;4969765;28;20212;-69
2021/10/01 12:15:36;;;;;;;2.45;0.70;;;20.40;67.70;;;;;;4973005;28;20212;-69
2021/10/01 12:18:03;;;;;;;2.00;0.70;;;20.40;69.60;;;;;;4958281;28;20319;-69
2021/10/01 12:20:30;;;;;;;2.78;0.70;;;20.90;66.90;;;;;;4967780;28;20212;-69
2021/10/01 12:22:57;;;;;;;1.27;0.68;;;20.60;64.10;;;;;;4958567;28;20690;-69
2021/10/01 12:25:26;;;;;;;1.50;0.50;;;20.80;65.70;;;;;;4961474;28;20206;-69
2021/10/01 12:27:54;;;;;;;1.48;1.02;;;20.40;69.60;;;;;;4961398;28;20264;-69
2021/10/01 12:30:21;;;;;;;1.40;0.75;;;20.70;65.00;;;;;;4960629;28;20646;-69
2021/10/01 12:32:49;;;;;;;0.80;0.50;;;20.90;59.70;;;;;;4962872;28;20206;-69
2021/10/01 12:35:16;;;;;;;2.80;0.70;;;21.00;63.10;;;;;;4961546;28;20212;-69
2021/10/01 12:37:43;;;;;;;3.45;0.93;;;20.90;62.50;;;;;;4970419;28;20210;-69
2021/10/01 12:40:13;;;;;;;1.42;0.75;;;21.10;59.60;;;;;;4968133;28;20205;-69
2021/10/01 12:42:41;;;;;;;2.58;0.93;;;21.30;58.70;;;;;;4961928;28;20210;-69
2021/10/01 12:45:12;;;;;;;1.27;0.50;;;20.90;56.10;;;;;;4966503;28;20201;-69
2021/10/01 12:47:40;;;;;;;1.88;0.70;;;21.20;58.70;;;;;;4967187;28;20570;-69
2021/10/01 12:50:10;;;;;;;4.00;1.13;;;21.20;55.70;;;;;;4967457;28;20198;-69
2021/10/01 12:52:39;;;;;;;1.70;1.00;;;21.40;57.10;;;;;;4962968;28;20587;-70
2021/10/01 12:55:08;;;;;;;2.38;1.05;;;21.20;57.50;;;;;;4963393;28;20242;-69
2021/10/01 12:57:37;;;;;;;2.15;0.77;;;20.40;54.90;;;;;;4962620;28;20217;-69
2021/10/01 13:00:17;;;;;;;1.73;0.73;;;20.80;57.60;;;;;;4956991;28;20222;-69
2021/10/01 13:02:46;;;;;;;2.60;1.10;;;21.10;58.50;;;;;;4960943;28;20213;-69
2021/10/01 13:05:18;;;;;;;2.42;0.70;;;21.40;56.40;;;;;;4967648;28;20206;-70
2021/10/01 13:07:46;;;;;;;2.47;0.80;;;21.20;57.70;;;;;;4966980;28;20217;-69
2021/10/01 13:10:29;;;;;;;3.03;0.70;;;21.60;54.70;;;;;;4960113;28;20583;-69
2021/10/01 13:13:04;;;;;;;2.22;0.70;;;21.60;57.60;;;;;;4940762;28;20208;-69
2021/10/01 13:15:51;;;;;;;0.88;0.77;;;21.40;54.50;;;;;;4958738;28;20208;-69
2021/10/01 13:18:30;;;;;;;2.97;0.68;;;21.50;53.70;;;;;;4960677;28;20226;-69
2021/10/01 13:21:09;;;;;;;2.00;0.60;;;21.10;58.10;;;;;;4955102;28;20210;-69
2021/10/01 13:23:37;;;;;;;1.65;0.80;;;20.70;56.20;;;;;;4950137;28;20590;-69
2021/10/01 13:26:12;;;;;;;5.43;0.85;;;20.40;54.60;;;;;;4953955;28;20206;-69
2021/10/01 13:28:39;;;;;;;0.77;0.70;;;20.30;56.90;;;;;;4952808;28;20201;-69
2021/10/01 13:31:06;;;;;;;1.77;0.65;;;20.30;58.20;;;;;;4955436;28;20692;-69
2021/10/01 13:33:33;;;;;;;3.78;0.80;;;20.60;56.30;;;;;;4950902;28;20202;-69
2021/10/01 13:36:01;;;;;;;1.00;0.70;;;20.80;54.30;;;;;;4949956;28;20206;-69
2021/10/01 13:38:30;;;;;;;2.25;1.10;;;20.30;56.60;;;;;;4949638;29;20606;-69
2021/10/01 13:40:57;;;;;;;3.05;1.05;;;20.30;57.60;;;;;;4950444;28;20215;-69
2021/10/01 13:43:24;;;;;;;1.77;0.75;;;20.10;57.20;;;;;;4959856;28;20209;-69
2021/10/01 13:45:51;;;;;;;1.02;0.45;;;20.10;55.90;;;;;;4959259;28;20210;-69
2021/10/01 13:48:18;;;;;;;2.60;0.75;;;20.00;56.60;;;;;;4963441;28;20203;-74
2021/10/01 13:50:45;;;;;;;1.55;0.82;;;20.30;55.70;;;;;;4952229;28;20800;-73
2021/10/01 13:53:13;;;;;;;1.67;0.60;;;20.40;61.70;;;;;;4962502;28;20211;-73
2021/10/01 13:55:40;;;;;;;0.68;0.65;;;19.90;55.00;;;;;;4959030;28;20220;-73
2021/10/01 13:58:07;;;;;;;2.17;1.00;;;20.20;55.30;;;;;;4966915;28;20217;-73
2021/10/01 14:00:34;;;;;;;2.47;0.80;;;19.90;54.40;;;;;;4964075;28;20232;-73
2021/10/01 14:03:01;;;;;;;1.30;0.70;;;19.70;53.00;;;;;;4961491;28;20224;-73
2021/10/01 14:05:28;;;;;;;0.80;0.52;;;19.40;52.80;;;;;;4967722;28;20206;-73
2021/10/01 14:07:55;;;;;;;2.90;0.70;;;19.60;55.70;;;;;;4958305;28;20235;-75
2021/10/01 14:10:25;;;;;;;2.45;0.65;;;19.40;54.50;;;;;;4956241;28;20240;-73
2021/10/01 14:12:52;;;;;;;2.60;1.17;;;19.50;55.20;;;;;;4956109;28;20206;-73
2021/10/01 14:15:21;;;;;;;2.22;0.80;;;19.50;55.90;;;;;;4952274;28;20893;-74
2021/10/01 14:17:49;;;;;;;2.28;0.90;;;20.00;56.80;;;;;;4956501;28;20209;-73
2021/10/01 14:20:18;;;;;;;1.70;0.77;;;19.50;56.70;;;;;;4957247;28;20311;-73
2021/10/01 14:22:45;;;;;;;7.80;1.25;;;19.60;57.10;;;;;;4956722;28;20202;-73
2021/10/01 14:25:13;;;;;;;9.95;1.00;;;19.80;60.80;;;;;;4969908;28;20210;-73